Time;durP1;ratioP1;P1;durP2;ratioP2;P2;SDS_P1;SDS_P2;PMS_P1;PMS_P2;Temp;Humidity;BMP_temperature;BMP_pressure;BME280_temperature;BME280_humidity;BME280_pressure;Samples;Min_cycle;Max_cycle;Signal;HPM_P1;HPM_P2
2023/10/17 00:02:22;;;;;;;12.23;9.33;;;4.00;99.50;;;;;;5053045;28;20186;-87
2023/10/17 00:04:49;;;;;;;10.93;8.77;;;4.00;99.50;;;;;;5035483;28;20202;-88
2023/10/17 00:07:15;;;;;;;12.33;9.53;;;4.00;99.90;;;;;;5032003;28;20201;-87
2023/10/17 00:09:42;;;;;;;14.63;9.90;;;4.20;99.60;;;;;;5050901;28;20279;-88
2023/10/17 00:12:25;;;;;;;11.53;9.07;;;4.30;99.30;;;;;;5053275;28;20206;-87
2023/10/17 00:14:58;;;;;;;11.57;9.57;;;4.30;99.30;;;;;;5029940;28;20252;-87
2023/10/17 00:17:25;;;;;;;10.07;8.50;;;4.20;99.30;;;;;;5045379;28;20221;-87
2023/10/17 00:19:52;;;;;;;11.33;9.07;;;4.20;99.30;;;;;;5053751;28;20225;-88
2023/10/17 00:22:23;;;;;;;13.50;9.30;;;4.20;99.40;;;;;;5049421;28;20194;-87
2023/10/17 00:24:55;;;;;;;11.43;9.20;;;4.10;99.50;;;;;;5036100;28;20202;-87
2023/10/17 00:27:22;;;;;;;11.33;9.33;;;4.10;99.80;;;;;;5048694;28;20264;-87
2023/10/17 00:29:49;;;;;;;12.27;9.10;;;4.10;99.90;;;;;;5054011;28;20202;-88
2023/10/17 00:32:18;;;;;;;12.37;9.17;;;4.10;99.90;;;;;;5052838;28;20205;-87
2023/10/17 00:34:46;;;;;;;11.47;9.10;;;4.10;99.90;;;;;;5053870;28;20543;-87
2023/10/17 00:37:15;;;;;;;11.17;8.80;;;4.20;99.70;;;;;;5051750;28;20583;-87
2023/10/17 00:39:41;;;;;;;11.00;8.93;;;4.20;99.60;;;;;;5052819;28;20213;-87
2023/10/17 00:42:27;;;;;;;10.57;9.00;;;4.30;99.70;;;;;;5051935;28;20564;-87
2023/10/17 00:44:54;;;;;;;13.03;9.40;;;4.30;99.40;;;;;;5048850;28;20193;-88
2023/10/17 00:47:23;;;;;;;11.13;9.03;;;4.40;99.50;;;;;;5052904;28;20197;-87
2023/10/17 00:49:50;;;;;;;12.30;8.70;;;4.30;99.20;;;;;;5036411;28;20209;-87
2023/10/17 00:52:25;;;;;;;10.27;8.80;;;4.40;99.30;;;;;;5050434;28;20229;-87
2023/10/17 00:54:54;;;;;;;11.47;9.53;;;4.30;99.20;;;;;;5046786;28;20208;-87
2023/10/17 00:57:26;;;;;;;13.30;9.30;;;4.30;99.70;;;;;;5050923;28;20232;-88
2023/10/17 00:59:54;;;;;;;11.20;9.00;;;4.20;99.60;;;;;;5051564;28;20690;-88
2023/10/17 01:02:24;;;;;;;11.83;9.13;;;4.30;99.60;;;;;;5051280;28;20847;-88
2023/10/17 01:04:51;;;;;;;10.80;8.50;;;4.20;99.50;;;;;;5053011;28;20216;-87
2023/10/17 01:07:26;;;;;;;12.97;9.37;;;4.20;99.40;;;;;;5047640;28;20190;-87
2023/10/17 01:09:56;;;;;;;10.17;8.33;;;4.20;99.50;;;;;;5052272;28;20196;-87
2023/10/17 01:12:28;;;;;;;11.63;9.07;;;4.20;99.60;;;;;;5035689;28;20662;-88
2023/10/17 01:14:55;;;;;;;11.07;8.87;;;4.20;99.70;;;;;;5051749;28;20209;-88
2023/10/17 01:17:24;;;;;;;12.63;9.30;;;4.10;99.50;;;;;;5051660;28;20221;-88
2023/10/17 01:19:56;;;;;;;12.27;9.47;;;4.10;99.90;;;;;;5050468;28;20206;-88
2023/10/17 01:22:23;;;;;;;12.80;9.13;;;4.10;99.90;;;;;;5029606;28;20202;-88
2023/10/17 01:24:56;;;;;;;15.83;9.57;;;4.00;99.90;;;;;;5049009;28;20232;-87
2023/10/17 01:27:23;;;;;;;13.87;9.70;;;4.00;99.90;;;;;;5020715;28;20280;-87
2023/10/17 01:29:50;;;;;;;10.40;9.00;;;4.00;99.90;;;;;;5051649;28;20209;-87
2023/10/17 01:32:18;;;;;;;12.23;9.63;;;3.90;99.90;;;;;;5051962;28;20568;-87
2023/10/17 01:34:47;;;;;;;12.90;9.80;;;3.90;99.90;;;;;;5052526;28;20208;-87
2023/10/17 01:37:14;;;;;;;10.63;8.87;;;3.90;99.90;;;;;;5050890;28;20225;-88
2023/10/17 01:39:41;;;;;;;13.27;9.80;;;3.80;99.90;;;;;;5052342;28;20275;-88
2023/10/17 01:42:09;;;;;;;11.53;9.00;;;3.80;99.90;;;;;;5034987;28;20205;-88
2023/10/17 01:44:36;;;;;;;12.07;9.37;;;3.80;99.90;;;;;;5051836;28;20202;-87
2023/10/17 01:47:07;;;;;;;11.70;9.53;;;3.80;99.90;;;;;;5039761;28;20205;-87
2023/10/17 01:49:35;;;;;;;10.90;8.97;;;3.90;99.90;;;;;;5052770;28;20281;-87
2023/10/17 01:52:02;;;;;;;13.30;9.33;;;3.80;99.90;;;;;;5033664;28;20702;-87
2023/10/17 01:54:29;;;;;;;11.93;9.37;;;4.00;99.90;;;;;;5034387;28;20201;-87
2023/10/17 01:57:05;;;;;;;11.53;9.00;;;3.90;99.10;;;;;;5051520;28;20230;-87
2023/10/17 01:59:34;;;;;;;10.80;8.70;;;3.80;99.20;;;;;;5049891;28;20225;-88
2023/10/17 02:02:03;;;;;;;12.00;10.10;;;3.70;99.30;;;;;;5049074;28;20293;-87
2023/10/17 02:04:30;;;;;;;11.70;10.17;;;3.60;99.50;;;;;;5050058;28;20194;-87
2023/10/17 02:06:58;;;;;;;11.70;9.37;;;3.60;99.70;;;;;;5047778;28;20237;-87
2023/10/17 02:09:44;;;;;;;11.27;9.53;;;3.50;99.50;;;;;;5019905;28;20194;-87
2023/10/17 02:12:11;;;;;;;13.13;9.60;;;3.40;99.80;;;;;;5050795;28;20198;-88
2023/10/17 02:14:41;;;;;;;12.70;10.03;;;3.40;99.90;;;;;;5044542;28;20535;-87
2023/10/17 02:17:09;;;;;;;12.87;9.70;;;3.30;99.90;;;;;;5046798;28;20751;-87
2023/10/17 02:19:38;;;;;;;13.83;9.40;;;3.30;99.90;;;;;;5033137;28;20208;-87
2023/10/17 02:22:09;;;;;;;13.63;10.00;;;3.20;99.90;;;;;;5033331;28;20580;-88
2023/10/17 02:24:37;;;;;;;13.13;9.50;;;3.20;99.90;;;;;;5051182;28;20221;-87
2023/10/17 02:27:09;;;;;;;12.23;9.57;;;3.10;99.90;;;;;;5051188;28;20206;-87
2023/10/17 02:29:39;;;;;;;12.80;9.93;;;3.00;99.90;;;;;;5049679;28;20665;-88
2023/10/17 02:32:11;;;;;;;12.03;9.30;;;3.00;99.90;;;;;;5045881;28;20603;-88
2023/10/17 02:34:38;;;;;;;12.07;10.10;;;3.00;99.90;;;;;;5033545;28;20225;-88
2023/10/17 02:37:10;;;;;;;13.97;9.97;;;3.00;99.90;;;;;;5033272;28;20214;-87
2023/10/17 02:39:38;;;;;;;11.90;9.60;;;3.00;99.90;;;;;;5047347;28;20197;-87
2023/10/17 02:42:08;;;;;;;11.50;9.33;;;2.90;99.90;;;;;;5024818;28;20205;-87
2023/10/17 02:44:39;;;;;;;14.03;8.83;;;2.90;99.90;;;;;;5050277;28;20275;-88
2023/10/17 02:47:11;;;;;;;11.67;9.30;;;2.90;99.90;;;;;;5051193;28;20201;-88
2023/10/17 02:49:38;;;;;;;12.27;9.13;;;3.00;99.90;;;;;;5051168;28;20206;-88
2023/10/17 02:52:05;;;;;;;11.33;9.07;;;3.00;99.90;;;;;;5045374;28;20224;-88
2023/10/17 02:54:52;;;;;;;12.57;9.97;;;3.10;99.90;;;;;;5051038;28;20708;-87
2023/10/17 02:57:20;;;;;;;14.20;9.30;;;3.00;99.90;;;;;;5050742;28;20245;-87
2023/10/17 02:59:51;;;;;;;13.20;9.77;;;3.10;99.90;;;;;;5050162;28;20694;-87
2023/10/17 03:02:20;;;;;;;10.87;8.63;;;3.10;99.90;;;;;;5049550;28;20248;-87
2023/10/17 03:04:47;;;;;;;11.70;8.90;;;3.10;99.60;;;;;;5051175;28;20205;-87
2023/10/17 03:07:15;;;;;;;11.73;9.30;;;3.10;99.40;;;;;;5033422;28;20206;-87
2023/10/17 03:09:44;;;;;;;11.13;8.40;;;2.90;99.50;;;;;;5051147;28;20227;-87
2023/10/17 03:12:19;;;;;;;12.30;9.10;;;2.80;99.80;;;;;;5048914;28;20253;-87
2023/10/17 03:17:32;;;;;;;12.43;8.60;;;2.60;99.70;;;;;;5042966;28;20216;-87
2023/10/17 03:19:57;;;;;;;13.57;9.33;;;2.50;99.70;;;;;;5049707;28;20201;-87
2023/10/17 03:22:27;;;;;;;11.67;9.03;;;2.50;99.90;;;;;;5051066;28;20209;-87
2023/10/17 03:25:01;;;;;;;11.43;8.37;;;2.60;99.90;;;;;;5036731;28;20225;-87
2023/10/17 03:27:35;;;;;;;10.57;8.13;;;2.60;99.70;;;;;;5050608;28;20585;-87
2023/10/17 03:30:05;;;;;;;11.53;8.30;;;2.60;99.80;;;;;;5031099;28;20193;-87
2023/10/17 03:32:34;;;;;;;12.53;8.23;;;2.60;99.70;;;;;;5051904;28;20201;-87
2023/10/17 03:35:02;;;;;;;10.53;8.03;;;2.60;99.90;;;;;;5054518;28;20662;-87
2023/10/17 03:37:30;;;;;;;8.90;7.10;;;2.70;99.80;;;;;;5051569;28;20218;-88
2023/10/17 03:40:02;;;;;;;9.57;7.73;;;2.60;99.60;;;;;;5048986;28;20198;-87
2023/10/17 03:42:46;;;;;;;10.43;7.97;;;2.60;99.70;;;;;;5038005;28;20208;-87
2023/10/17 03:45:17;;;;;;;20.17;9.17;;;2.50;99.70;;;;;;5053709;28;20239;-87
2023/10/17 03:47:49;;;;;;;16.23;10.23;;;2.50;99.70;;;;;;5054634;28;20220;-87
2023/10/17 03:50:31;;;;;;;24.63;11.87;;;2.40;99.70;;;;;;5051112;28;20194;-87
2023/10/17 03:53:05;;;;;;;30.43;12.07;;;2.30;99.90;;;;;;5048635;28;20197;-87
2023/10/17 03:55:35;;;;;;;18.37;11.30;;;2.30;99.90;;;;;;5037826;28;20233;-87
2023/10/17 03:58:08;;;;;;;20.03;12.03;;;2.40;99.90;;;;;;5050659;28;20226;-87
2023/10/17 04:00:41;;;;;;;27.93;12.80;;;2.50;99.90;;;;;;5038916;28;20201;-87
2023/10/17 04:03:12;;;;;;;70.27;14.23;;;2.60;99.90;;;;;;5036717;28;20210;-87
2023/10/17 04:05:45;;;;;;;32.10;13.67;;;2.70;99.90;;;;;;5047737;28;20288;-92
2023/10/17 04:08:13;;;;;;;47.03;15.60;;;2.70;99.90;;;;;;5049536;28;20202;-88
2023/10/17 04:10:47;;;;;;;37.30;14.83;;;2.80;99.90;;;;;;5039079;28;20206;-87
2023/10/17 04:13:21;;;;;;;27.90;14.50;;;2.80;99.90;;;;;;5054002;28;20650;-88
2023/10/17 04:15:47;;;;;;;44.60;16.10;;;2.80;99.90;;;;;;5040687;28;20797;-87
2023/10/17 04:18:17;;;;;;;27.60;15.73;;;2.90;99.90;;;;;;5051483;28;20220;-87
2023/10/17 04:20:46;;;;;;;26.77;15.40;;;3.00;99.90;;;;;;5054277;28;20251;-87
2023/10/17 04:23:26;;;;;;;29.17;15.73;;;3.20;99.90;;;;;;5053589;28;20209;-86
2023/10/17 04:25:55;;;;;;;26.63;15.93;;;3.20;99.90;;;;;;5048701;28;20658;-87
2023/10/17 04:28:26;;;;;;;24.03;14.77;;;3.30;99.90;;;;;;5038060;28;20360;-86
2023/10/17 04:30:56;;;;;;;22.63;14.80;;;3.40;99.90;;;;;;5053613;28;20726;-86
2023/10/17 04:33:28;;;;;;;24.17;15.67;;;3.50;99.90;;;;;;5052831;28;20210;-87
2023/10/17 04:36:00;;;;;;;30.63;14.93;;;3.60;99.90;;;;;;5053554;28;20718;-87
2023/10/17 04:38:36;;;;;;;23.30;15.50;;;3.60;99.90;;;;;;5053990;28;20210;-87
2023/10/17 04:41:17;;;;;;;23.13;15.50;;;3.70;99.90;;;;;;5051098;28;20194;-87
2023/10/17 04:43:54;;;;;;;27.53;16.07;;;3.80;99.90;;;;;;5050797;28;20561;-86
2023/10/17 04:46:25;;;;;;;23.23;16.37;;;4.00;99.90;;;;;;5047739;28;20276;-86
2023/10/17 04:48:55;;;;;;;27.70;17.77;;;3.90;99.90;;;;;;5052323;28;20222;-87
2023/10/17 04:51:26;;;;;;;29.87;16.47;;;3.80;99.90;;;;;;5053147;28;20260;-86
2023/10/17 04:53:55;;;;;;;26.90;16.97;;;3.70;99.90;;;;;;5040667;28;20210;-86
2023/10/17 04:56:22;;;;;;;30.27;17.97;;;3.70;99.90;;;;;;5026782;28;20769;-85
2023/10/17 04:58:53;;;;;;;22.93;15.53;;;3.70;99.90;;;;;;5032701;28;20574;-86
2023/10/17 05:01:37;;;;;;;34.80;16.13;;;3.80;99.90;;;;;;5048240;28;20190;-86
2023/10/17 05:04:18;;;;;;;24.47;15.53;;;3.80;99.90;;;;;;5047952;28;20201;-84
2023/10/17 06:18:17;;;;;;;21.53;13.33;;;3.90;99.90;;;;;;5050740;28;20228;-82
2023/10/17 06:31:57;;;;;;;18.90;14.20;;;3.70;99.90;;;;;;5045043;28;20279;-82
2023/10/17 06:34:24;;;;;;;21.07;14.87;;;3.70;99.90;;;;;;5049775;28;20224;-82
2023/10/17 06:36:58;;;;;;;18.60;14.13;;;3.80;99.90;;;;;;5046998;28;20561;-82
2023/10/17 06:39:26;;;;;;;20.33;13.40;;;3.90;99.90;;;;;;5047050;28;20225;-82
2023/10/17 06:42:09;;;;;;;20.13;13.30;;;4.10;99.90;;;;;;5045584;28;20205;-82
2023/10/17 06:44:44;;;;;;;17.47;13.13;;;4.30;99.90;;;;;;5046868;28;20186;-82
2023/10/17 06:47:17;;;;;;;18.17;12.87;;;4.30;99.90;;;;;;5049438;28;20189;-82
2023/10/17 06:50:16;;;;;;;23.47;13.63;;;4.50;99.90;;;;;;5049453;28;20209;-82
2023/10/17 06:52:40;;;;;;;26.83;12.90;;;4.30;99.90;;;;;;5047928;28;20301;-81
2023/10/17 06:55:08;;;;;;;17.70;13.27;;;4.20;99.90;;;;;;5046949;28;20201;-81
2023/10/17 06:57:36;;;;;;;15.97;13.03;;;4.10;99.90;;;;;;5047046;28;20228;-82
2023/10/17 07:00:16;;;;;;;21.03;12.67;;;4.10;99.90;;;;;;5050472;28;20252;-81
2023/10/17 07:02:48;;;;;;;26.47;13.17;;;4.30;99.90;;;;;;5047828;28;20208;-82
2023/10/17 07:05:21;;;;;;;16.23;12.37;;;4.30;99.90;;;;;;5051079;28;20194;-82
2023/10/17 07:07:52;;;;;;;17.77;12.17;;;4.20;99.90;;;;;;5034387;28;20198;-83
2023/10/17 07:10:37;;;;;;;27.03;13.30;;;4.40;99.90;;;;;;5062654;28;20221;-82
2023/10/17 07:13:42;;;;;;;19.70;13.67;;;4.50;99.90;;;;;;5051399;28;20325;-82
2023/10/17 07:16:12;;;;;;;23.53;13.90;;;4.60;99.90;;;;;;5050370;28;20205;-82
2023/10/17 07:18:45;;;;;;;18.00;12.80;;;4.70;99.90;;;;;;5047932;28;20271;-81
2023/10/17 07:21:22;;;;;;;21.23;13.70;;;4.80;99.90;;;;;;5051825;28;20285;-84
2023/10/17 07:23:49;;;;;;;31.50;13.17;;;4.80;99.90;;;;;;5053754;28;20204;-82
2023/10/17 07:26:24;;;;;;;24.53;11.73;;;4.80;99.90;;;;;;5052125;28;20540;-82
2023/10/17 07:28:51;;;;;;;18.70;10.70;;;5.00;99.90;;;;;;5054491;28;20575;-82
2023/10/17 07:31:20;;;;;;;13.13;10.17;;;4.90;99.40;;;;;;5035012;28;20212;-82
2023/10/17 07:33:53;;;;;;;20.67;11.00;;;5.00;99.60;;;;;;5053336;28;20210;-82
2023/10/17 07:36:20;;;;;;;12.97;10.80;;;5.00;99.30;;;;;;5054676;28;20202;-83
2023/10/17 07:38:47;;;;;;;13.67;11.30;;;5.00;99.50;;;;;;5048465;28;20566;-83
2023/10/17 07:41:14;;;;;;;16.20;11.00;;;4.90;99.80;;;;;;5054451;28;20213;-83
2023/10/17 07:43:44;;;;;;;16.50;11.10;;;4.90;99.90;;;;;;5054158;28;20268;-84
2023/10/17 07:46:16;;;;;;;12.93;10.10;;;5.00;99.90;;;;;;5053967;28;20225;-84
2023/10/17 07:48:48;;;;;;;14.10;10.50;;;4.90;99.60;;;;;;5051793;28;20202;-83
2023/10/17 07:51:16;;;;;;;13.07;9.77;;;5.00;99.90;;;;;;5054639;28;20218;-83
2023/10/17 07:53:45;;;;;;;14.43;9.33;;;5.10;99.90;;;;;;5052876;28;20217;-83
2023/10/17 07:56:20;;;;;;;11.50;9.57;;;5.20;99.10;;;;;;5052602;28;20749;-83
2023/10/17 07:58:56;;;;;;;12.40;9.90;;;5.10;98.90;;;;;;5052949;28;20225;-84
2023/10/17 08:01:32;;;;;;;12.93;10.53;;;5.10;99.10;;;;;;5037108;28;20205;-84
2023/10/17 08:04:13;;;;;;;12.40;10.00;;;5.00;99.50;;;;;;5051219;28;20243;-83
2023/10/17 08:06:41;;;;;;;11.13;9.07;;;5.00;99.70;;;;;;5032238;28;20205;-84
2023/10/17 08:09:18;;;;;;;12.23;9.23;;;4.80;98.80;;;;;;5036511;28;20194;-83
2023/10/17 08:11:46;;;;;;;14.47;10.13;;;4.90;99.40;;;;;;5053719;28;20646;-82
2023/10/17 08:14:16;;;;;;;14.73;10.33;;;5.00;99.00;;;;;;5051742;28;20205;-82
2023/10/17 08:16:44;;;;;;;13.33;10.17;;;5.00;99.30;;;;;;5030285;28;20558;-83
2023/10/17 08:19:15;;;;;;;14.33;10.03;;;5.00;99.80;;;;;;5053208;28;20220;-83
2023/10/17 08:21:49;;;;;;;11.07;9.17;;;5.00;99.90;;;;;;5051231;28;20197;-83
2023/10/17 08:24:25;;;;;;;9.63;8.40;;;5.40;99.80;;;;;;5048255;28;20201;-81
2023/10/17 08:27:13;;;;;;;11.33;9.30;;;5.60;98.50;;;;;;5047492;28;20198;-85
2023/10/17 08:29:42;;;;;;;9.50;8.37;;;5.70;97.90;;;;;;5051671;28;20233;-84
2023/10/17 08:34:59;;;;;;;13.13;9.67;;;5.90;97.50;;;;;;5050583;28;20431;-84
2023/10/17 08:37:28;;;;;;;11.97;9.67;;;5.90;98.20;;;;;;5048526;28;20194;-83
2023/10/17 08:39:57;;;;;;;11.03;9.27;;;6.00;97.30;;;;;;5051761;28;20716;-84
2023/10/17 08:42:30;;;;;;;12.97;9.30;;;6.20;97.30;;;;;;5050810;28;20204;-83
2023/10/17 08:44:57;;;;;;;13.17;9.83;;;6.50;96.30;;;;;;5051723;28;20216;-83
2023/10/17 08:47:30;;;;;;;11.00;9.80;;;6.50;95.50;;;;;;5048644;28;20194;-84
2023/10/17 08:50:04;;;;;;;12.17;9.77;;;6.70;95.70;;;;;;5053841;28;20536;-85
2023/10/17 08:52:35;;;;;;;16.20;10.70;;;6.70;95.40;;;;;;5035036;28;20304;-84
2023/10/17 08:55:02;;;;;;;14.25;11.50;;;6.50;96.30;;;;;;5046392;28;20225;-82
2023/10/17 08:57:30;;;;;;;12.07;10.77;;;6.50;96.40;;;;;;5052273;28;20194;-83
2023/10/17 09:00:23;;;;;;;14.93;10.33;;;6.50;96.90;;;;;;5062998;28;20224;-83
2023/10/17 09:03:00;;;;;;;11.57;9.68;;;6.60;96.50;;;;;;5052362;28;20198;-83
2023/10/17 09:05:29;;;;;;;14.27;10.90;;;6.60;95.40;;;;;;5051803;28;20197;-83
2023/10/17 09:08:02;;;;;;;10.48;9.13;;;6.50;96.30;;;;;;5039663;28;20233;-83
2023/10/17 09:10:36;;;;;;;12.20;10.18;;;6.60;96.50;;;;;;5052673;28;20255;-83
2023/10/17 09:16:13;;;;;;;12.87;9.90;;;6.80;95.40;;;;;;5037960;28;20581;-85
2023/10/17 09:18:47;;;;;;;11.77;10.23;;;6.90;95.50;;;;;;5048221;28;20210;-82
2023/10/17 09:21:20;;;;;;;13.13;10.30;;;6.90;95.50;;;;;;5048889;28;20196;-83
2023/10/17 09:23:48;;;;;;;13.13;10.48;;;6.90;95.50;;;;;;5053765;28;20202;-82
2023/10/17 09:26:19;;;;;;;11.63;9.85;;;6.90;96.20;;;;;;5032431;28;20244;-82
2023/10/17 09:28:48;;;;;;;11.60;9.43;;;7.00;95.40;;;;;;5051867;28;20263;-82
2023/10/17 09:31:15;;;;;;;11.75;8.98;;;7.10;94.80;;;;;;5050374;28;20230;-82
2023/10/17 09:33:44;;;;;;;9.95;8.90;;;7.20;94.70;;;;;;5041974;28;20364;-82
2023/10/17 09:36:12;;;;;;;10.82;9.10;;;7.20;93.90;;;;;;5049654;28;20205;-83
2023/10/17 09:38:43;;;;;;;12.88;9.93;;;7.20;94.60;;;;;;5044158;28;20203;-83
2023/10/17 09:41:11;;;;;;;11.45;9.25;;;7.20;95.50;;;;;;5046860;28;20198;-83
2023/10/17 09:43:39;;;;;;;10.10;9.10;;;7.10;95.50;;;;;;5045082;28;20618;-83
2023/10/17 09:46:10;;;;;;;10.80;8.85;;;7.10;95.50;;;;;;5029708;28;20193;-83
2023/10/17 09:48:38;;;;;;;10.57;9.40;;;7.30;95.50;;;;;;5051570;28;20200;-82
2023/10/17 09:51:06;;;;;;;12.93;9.73;;;7.30;95.30;;;;;;5031845;28;20221;-82
2023/10/17 09:53:34;;;;;;;12.13;9.20;;;7.40;94.50;;;;;;5049565;28;20194;-83
2023/10/17 09:56:07;;;;;;;10.13;9.13;;;7.30;94.30;;;;;;5051034;28;20209;-83
2023/10/17 09:58:38;;;;;;;11.00;9.20;;;7.20;95.30;;;;;;5048927;28;20202;-83
2023/10/17 10:01:13;;;;;;;13.25;10.15;;;7.40;94.50;;;;;;5044109;28;20253;-83
2023/10/17 10:03:41;;;;;;;11.80;9.38;;;7.40;95.10;;;;;;5048754;28;20225;-84
2023/10/17 10:06:22;;;;;;;10.68;9.50;;;7.40;94.50;;;;;;5048972;28;20202;-83
2023/10/17 10:08:54;;;;;;;11.55;9.48;;;7.60;94.00;;;;;;5044260;28;20255;-84
2023/10/17 10:11:46;;;;;;;12.32;9.77;;;7.60;93.80;;;;;;5031023;28;20208;-83
2023/10/17 10:14:13;;;;;;;12.32;10.02;;;7.90;93.80;;;;;;5046820;28;20658;-84
2023/10/17 10:16:53;;;;;;;11.45;9.90;;;8.10;93.60;;;;;;5014846;28;20210;-84
2023/10/17 10:19:21;;;;;;;12.10;10.27;;;8.40;93.40;;;;;;5029718;28;20217;-83
2023/10/17 10:21:57;;;;;;;13.27;9.90;;;8.40;91.80;;;;;;5043535;28;20288;-84
2023/10/17 10:24:27;;;;;;;14.32;10.73;;;8.40;92.50;;;;;;5036358;28;20189;-84
2023/10/17 10:27:20;;;;;;;15.80;10.35;;;8.10;92.20;;;;;;5050447;28;20212;-83
2023/10/17 10:29:49;;;;;;;13.20;10.40;;;8.00;93.00;;;;;;5052042;28;20201;-84
2023/10/17 10:32:34;;;;;;;11.68;9.70;;;8.10;93.10;;;;;;5045788;28;20285;-85
2023/10/17 10:35:03;;;;;;;12.85;10.20;;;8.20;93.30;;;;;;5046987;28;20646;-83
2023/10/17 10:37:32;;;;;;;12.45;9.90;;;8.50;92.20;;;;;;5027643;28;20209;-83
2023/10/17 10:40:10;;;;;;;12.73;10.27;;;8.60;91.70;;;;;;5039021;28;20218;-83
2023/10/17 10:42:47;;;;;;;12.65;10.23;;;8.60;91.80;;;;;;5026198;28;20208;-83
2023/10/17 10:45:35;;;;;;;12.27;10.85;;;8.80;91.30;;;;;;5046178;28;20202;-85
2023/10/17 10:48:04;;;;;;;13.23;10.80;;;8.70;92.00;;;;;;5033318;28;20190;-88
2023/10/17 10:50:33;;;;;;;12.30;11.00;;;9.00;91.20;;;;;;5048502;28;20210;-85
2023/10/17 10:53:19;;;;;;;11.52;9.85;;;8.90;91.80;;;;;;5050262;28;20744;-87
2023/10/17 10:56:09;;;;;;;11.93;10.20;;;9.10;91.40;;;;;;5034543;28;20217;-87
2023/10/17 10:58:47;;;;;;;12.40;10.25;;;9.50;90.20;;;;;;5044094;28;20233;-87
2023/10/17 11:01:14;;;;;;;13.05;10.68;;;9.50;90.60;;;;;;5044084;28;20222;-88
2023/10/17 11:03:42;;;;;;;12.88;10.55;;;9.80;87.20;;;;;;5048944;28;20630;-84
2023/10/17 11:06:09;;;;;;;11.50;10.30;;;10.00;87.10;;;;;;5047139;28;20222;-84
2023/10/17 11:08:37;;;;;;;12.35;10.48;;;10.30;82.30;;;;;;5049541;28;20564;-84
2023/10/17 11:11:05;;;;;;;14.20;10.10;;;10.30;81.00;;;;;;5021320;28;20212;-85
2023/10/17 11:13:34;;;;;;;12.95;10.40;;;10.10;84.60;;;;;;5022741;28;20209;-88
2023/10/17 11:16:04;;;;;;;14.07;10.38;;;10.30;87.40;;;;;;5047506;28;20205;-86
2023/10/17 11:18:33;;;;;;;12.27;9.38;;;10.70;80.60;;;;;;5032252;28;20236;-88
2023/10/17 11:21:02;;;;;;;10.43;9.38;;;11.00;78.00;;;;;;5051489;28;20228;-88
2023/10/17 11:23:30;;;;;;;13.32;9.77;;;11.20;74.40;;;;;;5012402;28;20256;-85
2023/10/17 11:25:59;;;;;;;10.50;9.40;;;11.30;71.60;;;;;;5048873;28;20648;-87
2023/10/17 11:28:28;;;;;;;10.85;9.60;;;11.30;72.00;;;;;;5048207;28;20214;-87
2023/10/17 11:30:58;;;;;;;11.77;10.30;;;11.40;67.80;;;;;;5039742;28;20683;-86
2023/10/17 11:33:37;;;;;;;11.90;10.10;;;11.20;71.80;;;;;;5048809;28;20241;-88
2023/10/17 11:36:12;;;;;;;11.82;9.63;;;10.90;74.00;;;;;;5053895;28;20653;-87
2023/10/17 11:38:40;;;;;;;14.35;10.60;;;10.80;77.30;;;;;;5026842;28;20225;-85
2023/10/17 11:41:08;;;;;;;10.63;9.27;;;10.80;75.90;;;;;;5013397;28;20746;-86
2023/10/17 11:43:36;;;;;;;12.45;9.55;;;10.60;77.00;;;;;;5028920;28;20213;-86
2023/10/17 11:46:12;;;;;;;10.85;9.75;;;10.60;76.20;;;;;;5015544;28;20202;-86
2023/10/17 11:48:44;;;;;;;10.13;8.65;;;10.50;78.50;;;;;;5033248;28;20289;-87
2023/10/17 11:51:30;;;;;;;9.75;8.38;;;10.40;78.60;;;;;;5047263;28;20229;-86
2023/10/17 11:54:05;;;;;;;12.27;8.35;;;10.50;77.70;;;;;;5035201;28;20210;-86
2023/10/17 11:56:33;;;;;;;8.45;7.47;;;10.50;78.00;;;;;;5048657;28;20247;-87
2023/10/17 11:59:01;;;;;;;10.45;7.53;;;10.50;79.80;;;;;;5049498;28;20208;-84
2023/10/17 12:01:28;;;;;;;9.52;7.60;;;10.90;77.00;;;;;;5053346;28;20296;-84
2023/10/17 12:03:57;;;;;;;10.45;7.55;;;10.80;77.00;;;;;;5054825;28;20241;-85
2023/10/17 12:06:27;;;;;;;7.90;7.10;;;10.80;75.40;;;;;;5052883;28;20198;-85
2023/10/17 12:08:55;;;;;;;8.80;7.40;;;11.00;75.30;;;;;;5048588;28;20278;-85
2023/10/17 12:11:24;;;;;;;8.68;7.38;;;11.10;70.30;;;;;;5054359;28;20198;-85
2023/10/17 12:13:51;;;;;;;11.13;7.85;;;11.00;74.10;;;;;;5052945;28;20194;-87
2023/10/17 12:16:23;;;;;;;9.10;7.55;;;10.90;74.00;;;;;;5051382;28;20564;-87
2023/10/17 12:18:50;;;;;;;9.20;7.93;;;10.80;74.00;;;;;;5053363;28;20632;-86
2023/10/17 12:21:19;;;;;;;8.98;7.93;;;10.70;77.20;;;;;;5054002;28;20224;-86
2023/10/17 12:23:46;;;;;;;9.57;8.07;;;10.90;76.40;;;;;;5053237;28;20670;-85
2023/10/17 12:26:14;;;;;;;10.70;8.13;;;10.80;78.30;;;;;;5051926;28;20562;-85
2023/10/17 12:28:42;;;;;;;10.88;8.15;;;10.50;82.00;;;;;;5050049;28;21098;-84
2023/10/17 12:31:10;;;;;;;11.25;8.18;;;10.60;79.00;;;;;;5051796;28;20577;-85
2023/10/17 12:33:37;;;;;;;10.13;8.38;;;10.70;79.50;;;;;;5035336;28;20202;-85
2023/10/17 12:36:06;;;;;;;12.25;8.35;;;10.70;80.00;;;;;;5049152;28;20588;-85
2023/10/17 12:38:34;;;;;;;11.35;8.07;;;10.80;81.60;;;;;;5048635;28;20208;-86
2023/10/17 12:41:03;;;;;;;11.02;8.18;;;10.80;80.40;;;;;;5053791;28;20771;-84
2023/10/17 12:43:30;;;;;;;10.55;8.75;;;10.90;79.30;;;;;;5050641;28;20194;-85
2023/10/17 12:45:57;;;;;;;10.57;8.93;;;11.00;78.80;;;;;;5041993;28;20213;-84
2023/10/17 12:48:24;;;;;;;13.18;9.48;;;10.80;78.50;;;;;;5052455;28;20276;-84
2023/10/17 12:50:51;;;;;;;9.02;7.82;;;10.70;79.40;;;;;;5016794;28;20217;-85
2023/10/17 12:53:18;;;;;;;10.73;8.57;;;10.60;81.80;;;;;;5050608;28;20213;-85
2023/10/17 12:55:47;;;;;;;9.70;8.70;;;10.60;81.40;;;;;;5041082;28;20216;-86
2023/10/17 12:58:18;;;;;;;9.23;8.25;;;10.40;86.50;;;;;;5045277;28;20205;-86
2023/10/17 13:00:48;;;;;;;9.07;7.80;;;10.30;84.80;;;;;;5038982;28;20302;-86
2023/10/17 13:03:18;;;;;;;8.05;6.95;;;10.50;80.80;;;;;;5023942;28;20210;-84
2023/10/17 13:05:48;;;;;;;7.55;6.75;;;10.40;82.70;;;;;;5049653;28;20234;-87
2023/10/17 13:11:21;;;;;;;11.95;7.20;;;10.50;79.00;;;;;;5044135;28;20682;-86
2023/10/17 13:13:57;;;;;;;7.20;6.50;;;10.50;77.50;;;;;;5046096;28;20399;-85
2023/10/17 13:16:26;;;;;;;9.45;7.53;;;10.30;79.80;;;;;;5051113;28;20198;-84
2023/10/17 13:19:06;;;;;;;8.23;7.10;;;10.40;80.00;;;;;;5030441;28;21395;-84
2023/10/17 13:21:36;;;;;;;8.30;7.20;;;10.50;78.10;;;;;;5047979;28;20560;-85
2023/10/17 13:24:03;;;;;;;9.10;7.40;;;10.30;80.20;;;;;;5037944;28;20263;-85
2023/10/17 13:26:32;;;;;;;8.52;7.57;;;10.50;79.00;;;;;;5049806;28;20658;-85
2023/10/17 13:28:59;;;;;;;7.65;6.75;;;10.60;79.30;;;;;;5031652;28;20230;-84
2023/10/17 13:31:26;;;;;;;9.60;7.90;;;10.40;80.50;;;;;;5055930;28;20225;-87
2023/10/17 13:33:55;;;;;;;10.40;7.28;;;10.30;80.50;;;;;;5050435;28;20202;-87
2023/10/17 13:36:22;;;;;;;9.95;7.82;;;10.40;81.50;;;;;;5012931;28;20241;-85
2023/10/17 13:38:49;;;;;;;9.30;7.18;;;10.40;81.90;;;;;;5026084;28;20268;-89
2023/10/17 13:41:18;;;;;;;9.13;7.63;;;10.50;80.50;;;;;;5046388;28;20230;-86
2023/10/17 13:51:50;;;;;;;10.50;8.68;;;10.40;82.80;;;;;;5038813;28;20240;-89
2023/10/17 13:54:17;;;;;;;10.73;8.38;;;10.20;84.40;;;;;;5045814;28;20193;-87
2023/10/17 13:56:44;;;;;;;10.18;8.57;;;10.30;85.00;;;;;;5036838;28;20819;-88
2023/10/17 13:59:14;;;;;;;11.48;8.70;;;10.20;85.80;;;;;;5028471;28;20252;-87
2023/10/17 14:01:46;;;;;;;9.65;8.30;;;10.30;85.10;;;;;;5035690;28;20272;-89
2023/10/17 14:04:14;;;;;;;11.18;7.53;;;10.20;86.40;;;;;;5048874;28;20286;-88
2023/10/17 14:06:42;;;;;;;9.95;8.30;;;10.30;85.60;;;;;;5025239;28;20213;-91
2023/10/17 14:09:16;;;;;;;8.75;7.70;;;10.20;85.60;;;;;;5037534;28;20203;-89
2023/10/17 14:20:40;;;;;;;10.50;8.65;;;10.50;85.60;;;;;;5031326;28;20639;-91
2023/10/17 14:23:11;;;;;;;9.85;8.00;;;10.40;83.50;;;;;;5034771;28;20272;-91
2023/10/17 14:28:23;;;;;;;9.95;7.35;;;10.30;87.70;;;;;;5051269;28;20201;-86
2023/10/17 14:30:51;;;;;;;11.88;7.43;;;10.50;86.20;;;;;;5051110;28;20202;-85
2023/10/17 14:33:19;;;;;;;10.38;7.68;;;10.30;87.90;;;;;;5032014;28;20212;-86
2023/10/17 14:35:48;;;;;;;9.02;7.20;;;10.20;88.40;;;;;;5048240;28;20198;-85
2023/10/17 14:38:16;;;;;;;8.77;6.95;;;10.10;88.90;;;;;;5043097;28;20197;-85
2023/10/17 14:40:43;;;;;;;8.48;6.50;;;10.10;87.60;;;;;;5022769;28;20222;-86
2023/10/17 14:43:12;;;;;;;8.18;6.78;;;10.10;87.00;;;;;;5049821;28;20567;-86
2023/10/17 14:45:40;;;;;;;8.48;6.20;;;10.10;86.40;;;;;;5043646;28;20237;-88
2023/10/17 14:48:11;;;;;;;8.77;6.82;;;10.00;87.50;;;;;;5036946;28;20198;-87
2023/10/17 14:50:39;;;;;;;8.07;6.38;;;10.00;88.10;;;;;;5050465;28;20249;-85
2023/10/17 14:53:06;;;;;;;9.43;7.00;;;9.90;90.10;;;;;;5050602;28;20616;-85
2023/10/17 14:55:34;;;;;;;9.00;6.57;;;10.00;90.30;;;;;;5049958;28;20202;-84
2023/10/17 14:58:01;;;;;;;9.35;7.10;;;10.00;88.20;;;;;;5042389;28;20202;-84